Time;durP1;ratioP1;P1;durP2;ratioP2;P2;SDS_P1;SDS_P2;PMS_P1;PMS_P2;Temp;Humidity;BMP_temperature;BMP_pressure;BME280_temperature;BME280_humidity;BME280_pressure;Samples;Min_cycle;Max_cycle;Signal;HPM_P1;HPM_P2
2023/12/18 00:01:52;;;;;;;13.13;6.00;;;;;;;8.17;100.00;102817.09;6135265;28;20242;-73
2023/12/18 00:05:12;;;;;;;13.13;7.10;;;;;;;8.18;100.00;102824.22;6139730;28;20280;-73
2023/12/18 00:08:33;;;;;;;11.17;7.37;;;;;;;8.22;100.00;102815.91;6137382;28;20246;-72
2023/12/18 00:11:54;;;;;;;12.90;7.97;;;;;;;8.14;100.00;102819.91;6129192;28;22970;-73
2023/12/18 00:15:18;;;;;;;9.60;7.23;;;;;;;8.08;100.00;102824.66;6129274;28;20235;-74
2023/12/18 00:18:39;;;;;;;13.77;7.40;;;;;;;8.11;100.00;102799.47;6133569;28;20689;-73
2023/12/18 00:22:00;;;;;;;12.23;8.07;;;;;;;8.09;100.00;102793.28;6134421;28;20242;-72
2023/12/18 00:25:21;;;;;;;12.37;8.13;;;;;;;8.08;100.00;102795.09;6135029;28;20513;-72
2023/12/18 00:28:42;;;;;;;12.67;8.77;;;;;;;8.08;100.00;102792.41;6132629;28;20273;-73
2023/12/18 00:32:05;;;;;;;13.27;8.37;;;;;;;8.12;100.00;102792.25;6138318;28;20235;-72
2023/12/18 00:35:26;;;;;;;14.20;9.90;;;;;;;8.06;100.00;102794.31;6136981;28;20235;-73
2023/12/18 00:38:47;;;;;;;14.00;8.80;;;;;;;8.10;100.00;102784.28;6138434;28;20548;-72
2023/12/18 00:42:08;;;;;;;9.80;6.47;;;;;;;8.08;100.00;102783.47;6137790;28;20231;-73
2023/12/18 00:45:29;;;;;;;12.10;8.63;;;;;;;8.08;100.00;102775.41;6131992;28;20238;-73
2023/12/18 00:48:51;;;;;;;13.90;8.07;;;;;;;8.05;100.00;102776.44;6133713;28;20235;-72
2023/12/18 00:52:12;;;;;;;12.60;8.07;;;;;;;8.05;100.00;102752.25;6137240;28;20283;-72
2023/12/18 00:55:33;;;;;;;13.13;7.60;;;;;;;8.07;100.00;102745.00;6136888;28;20325;-73
2023/12/18 00:58:54;;;;;;;9.13;7.00;;;;;;;8.07;100.00;102738.78;6134237;28;20242;-73
2023/12/18 01:02:15;;;;;;;14.17;8.50;;;;;;;8.06;100.00;102748.66;6138279;28;20305;-73
2023/12/18 01:05:37;;;;;;;20.53;10.47;;;;;;;8.06;100.00;102724.47;6148971;28;20223;-72
2023/12/18 01:08:58;;;;;;;13.43;7.17;;;;;;;8.09;100.00;102742.25;6130924;28;21967;-73
2023/12/18 01:12:19;;;;;;;12.57;8.63;;;;;;;8.11;100.00;102745.75;6136158;28;20257;-73
2023/12/18 01:15:40;;;;;;;12.17;7.40;;;;;;;8.15;100.00;102741.97;6135537;28;20235;-72
2023/12/18 01:19:02;;;;;;;14.40;7.90;;;;;;;8.12;100.00;102739.41;6132919;28;20328;-73
2023/12/18 01:22:24;;;;;;;7.53;6.27;;;;;;;8.10;100.00;102741.31;6136463;28;20234;-71
2023/12/18 01:25:45;;;;;;;12.40;7.43;;;;;;;8.15;100.00;102738.41;6135561;28;20235;-72
2023/12/18 01:29:06;;;;;;;14.47;10.33;;;;;;;8.13;100.00;102743.84;6135768;28;20238;-72
2023/12/18 01:32:27;;;;;;;12.10;7.97;;;;;;;8.16;100.00;102732.06;6133382;28;20223;-72
2023/12/18 01:35:48;;;;;;;8.27;7.20;;;;;;;8.19;100.00;102727.44;6135088;28;20227;-73
2023/12/18 01:39:10;;;;;;;11.83;7.93;;;;;;;8.14;100.00;102726.78;6135262;28;20230;-73
2023/12/18 01:42:32;;;;;;;15.20;8.37;;;;;;;8.15;100.00;102724.97;6133250;28;20235;-73
2023/12/18 01:45:57;;;;;;;14.37;8.37;;;;;;;8.17;100.00;102726.63;6135085;28;20231;-72
2023/12/18 01:49:18;;;;;;;10.73;9.77;;;;;;;8.20;100.00;102731.00;6134275;28;20238;-73
2023/12/18 01:52:40;;;;;;;17.73;9.10;;;;;;;8.09;100.00;102734.22;6137297;28;20507;-73
2023/12/18 01:56:03;;;;;;;13.53;9.13;;;;;;;8.08;100.00;102729.75;6135006;28;20231;-72
2023/12/18 01:59:25;;;;;;;13.07;7.70;;;;;;;8.06;100.00;102718.22;6133419;28;20238;-73
2023/12/18 02:02:46;;;;;;;14.50;7.93;;;;;;;8.09;100.00;102737.75;6135209;28;20263;-72
2023/12/18 02:06:11;;;;;;;13.27;9.17;;;;;;;8.11;100.00;102726.06;6131605;28;20749;-72
2023/12/18 02:09:32;;;;;;;14.40;8.70;;;;;;;8.05;100.00;102744.22;6135410;28;20238;-72
2023/12/18 02:12:54;;;;;;;11.57;9.33;;;;;;;8.09;100.00;102732.38;6139626;28;20516;-73
2023/12/18 02:16:15;;;;;;;12.13;7.47;;;;;;;8.09;100.00;102740.41;6130245;28;20239;-73
2023/12/18 02:19:36;;;;;;;12.60;8.93;;;;;;;8.16;100.00;102749.06;6132030;28;20243;-73
2023/12/18 02:22:58;;;;;;;13.67;7.97;;;;;;;8.04;100.00;102721.00;6134256;28;20236;-73
2023/12/18 02:26:20;;;;;;;10.10;8.43;;;;;;;8.03;100.00;102705.81;6124327;28;20239;-73
2023/12/18 02:29:40;;;;;;;12.83;10.07;;;;;;;8.02;100.00;102712.16;6135932;28;20549;-72
2023/12/18 02:33:01;;;;;;;13.20;9.33;;;;;;;7.99;100.00;102719.47;6134282;28;20234;-72
2023/12/18 02:36:22;;;;;;;16.20;10.13;;;;;;;7.99;100.00;102712.28;6133686;28;20230;-73
2023/12/18 02:39:45;;;;;;;17.43;9.53;;;;;;;7.92;100.00;102686.69;6132510;28;20247;-72
2023/12/18 02:43:06;;;;;;;17.70;8.83;;;;;;;7.95;100.00;102691.00;6139037;28;20230;-72
2023/12/18 02:46:28;;;;;;;10.90;8.97;;;;;;;7.94;100.00;102684.81;6132519;28;21611;-72
2023/12/18 02:49:49;;;;;;;11.00;9.30;;;;;;;7.95;100.00;102681.16;6134079;28;20255;-72
2023/12/18 02:53:10;;;;;;;10.00;8.67;;;;;;;7.97;100.00;102683.75;6137936;28;20313;-72
2023/12/18 02:56:32;;;;;;;12.43;9.17;;;;;;;8.03;100.00;102691.53;6137522;28;20255;-72
2023/12/18 02:59:53;;;;;;;15.67;10.77;;;;;;;7.96;100.00;102674.84;6142586;28;20226;-73
2023/12/18 03:03:14;;;;;;;15.70;9.57;;;;;;;8.01;100.00;102682.66;6138176;28;20255;-73
2023/12/18 03:06:35;;;;;;;19.53;8.70;;;;;;;8.03;100.00;102680.78;6131699;28;20238;-73
2023/12/18 03:09:56;;;;;;;16.50;8.90;;;;;;;8.07;100.00;102685.91;6135950;28;20511;-73
2023/12/18 03:13:18;;;;;;;11.53;9.63;;;;;;;8.10;100.00;102690.28;6131944;28;20239;-73
2023/12/18 03:16:39;;;;;;;15.07;8.17;;;;;;;8.09;100.00;102683.19;6131399;28;20255;-72
2023/12/18 03:20:00;;;;;;;11.27;8.70;;;;;;;8.11;100.00;102691.16;6133673;28;20576;-73
2023/12/18 03:23:21;;;;;;;17.03;9.97;;;;;;;8.04;100.00;102695.94;6139774;28;20322;-72
2023/12/18 03:26:42;;;;;;;13.73;10.13;;;;;;;8.03;100.00;102691.53;6130314;28;20238;-73
2023/12/18 03:30:06;;;;;;;11.07;8.40;;;;;;;8.02;100.00;102679.03;6130995;28;20238;-73
2023/12/18 03:33:27;;;;;;;13.73;9.50;;;;;;;7.98;100.00;102694.44;6136021;28;20235;-72
2023/12/18 03:36:47;;;;;;;12.87;10.13;;;;;;;7.99;100.00;102689.91;6138921;28;20262;-72
2023/12/18 03:40:09;;;;;;;9.63;8.40;;;;;;;8.00;100.00;102711.34;6125598;28;20659;-73
2023/12/18 03:43:30;;;;;;;12.20;8.87;;;;;;;7.96;100.00;102709.75;6138311;28;20231;-72
2023/12/18 03:46:52;;;;;;;14.80;10.53;;;;;;;7.98;100.00;102697.13;6137154;28;20231;-72
2023/12/18 03:50:13;;;;;;;13.83;9.57;;;;;;;7.97;100.00;102705.22;6137330;28;20228;-72
2023/12/18 03:53:34;;;;;;;19.30;11.50;;;;;;;7.95;100.00;102685.63;6138134;28;20226;-72
2023/12/18 03:56:55;;;;;;;11.97;10.17;;;;;;;7.93;100.00;102682.16;6129644;28;20238;-72
2023/12/18 04:00:17;;;;;;;10.43;8.57;;;;;;;7.90;100.00;102685.91;6117324;28;20259;-73
2023/12/18 04:03:40;;;;;;;10.87;8.90;;;;;;;7.95;100.00;102685.63;6138448;28;20239;-72
2023/12/18 04:07:00;;;;;;;11.87;9.07;;;;;;;7.86;100.00;102686.97;6136014;28;20263;-72
2023/12/18 04:10:21;;;;;;;15.90;10.07;;;;;;;7.87;100.00;102690.53;6137827;28;21553;-72
2023/12/18 04:13:43;;;;;;;16.50;10.37;;;;;;;7.92;100.00;102692.06;6111895;28;20235;-72
2023/12/18 04:17:04;;;;;;;14.00;9.30;;;;;;;7.88;100.00;102690.47;6107870;28;21988;-73
2023/12/18 04:20:26;;;;;;;12.77;9.10;;;;;;;7.84;100.00;102688.84;6105786;28;20235;-72
2023/12/18 04:23:47;;;;;;;12.93;9.87;;;;;;;7.84;100.00;102691.53;6121165;28;20644;-72
2023/12/18 04:27:07;;;;;;;14.83;10.43;;;;;;;7.87;100.00;102686.03;6123363;28;21443;-73
2023/12/18 04:30:28;;;;;;;12.23;9.80;;;;;;;7.83;100.00;102680.88;6131311;28;20242;-72
2023/12/18 04:33:49;;;;;;;13.47;11.27;;;;;;;7.83;100.00;102683.56;6132501;28;21795;-72
2023/12/18 04:37:12;;;;;;;21.47;11.17;;;;;;;7.78;100.00;102682.94;6132427;28;20238;-72
2023/12/18 04:40:33;;;;;;;16.37;9.83;;;;;;;7.75;100.00;102686.63;6131561;28;20246;-72
2023/12/18 04:43:54;;;;;;;14.27;11.97;;;;;;;7.78;100.00;102681.09;6135638;28;20234;-73
2023/12/18 04:47:14;;;;;;;12.37;10.60;;;;;;;7.74;100.00;102684.03;6135203;28;20235;-72
2023/12/18 04:50:35;;;;;;;13.93;11.27;;;;;;;7.72;100.00;102684.06;6134581;28;21301;-72
2023/12/18 04:53:58;;;;;;;12.93;11.40;;;;;;;7.71;100.00;102681.47;6138298;28;20510;-72
2023/12/18 04:57:18;;;;;;;17.37;11.63;;;;;;;7.65;100.00;102690.69;6137315;28;20238;-73
2023/12/18 05:00:39;;;;;;;24.00;15.80;;;;;;;7.63;100.00;102681.84;6135956;28;21124;-73
2023/12/18 05:04:00;;;;;;;15.23;11.80;;;;;;;7.60;100.00;102689.16;6131968;28;20231;-73
2023/12/18 05:07:21;;;;;;;12.97;11.57;;;;;;;7.58;100.00;102681.19;6128059;28;20247;-72
2023/12/18 05:10:43;;;;;;;12.10;10.67;;;;;;;7.63;100.00;102675.59;6136893;28;20235;-72
2023/12/18 05:14:04;;;;;;;17.33;14.20;;;;;;;7.54;100.00;102687.66;6131999;28;20247;-72
2023/12/18 05:17:25;;;;;;;19.07;12.30;;;;;;;7.51;100.00;102687.78;6136436;28;20790;-72
2023/12/18 05:20:46;;;;;;;19.57;12.20;;;;;;;7.50;100.00;102699.47;6136273;28;20239;-72
2023/12/18 05:24:07;;;;;;;13.83;11.53;;;;;;;7.48;100.00;102693.31;6136653;28;20322;-72
2023/12/18 05:27:30;;;;;;;19.57;13.00;;;;;;;7.53;100.00;102699.31;6140047;28;20394;-72
2023/12/18 05:30:51;;;;;;;16.70;15.00;;;;;;;7.55;100.00;102702.78;6134786;28;20247;-72
2023/12/18 05:34:12;;;;;;;19.53;13.10;;;;;;;7.53;100.00;102704.69;6138544;28;20239;-72
2023/12/18 05:37:33;;;;;;;16.80;11.03;;;;;;;7.44;100.00;102694.41;6134130;28;20234;-72
2023/12/18 05:40:54;;;;;;;15.80;11.67;;;;;;;7.48;100.00;102685.25;6134358;28;20238;-72
2023/12/18 05:44:16;;;;;;;14.00;12.57;;;;;;;7.53;100.00;102687.72;6136064;28;20238;-73
2023/12/18 05:47:37;;;;;;;24.07;13.87;;;;;;;7.51;100.00;102685.09;6130296;28;20239;-73
2023/12/18 05:50:58;;;;;;;16.70;14.63;;;;;;;7.45;100.00;102695.28;6130871;28;20243;-73
2023/12/18 05:54:19;;;;;;;22.80;13.47;;;;;;;7.44;100.00;102702.44;6138221;28;20239;-73
2023/12/18 05:57:41;;;;;;;20.93;14.20;;;;;;;7.49;100.00;102704.91;6133871;28;21350;-73
2023/12/18 06:01:04;;;;;;;14.70;12.97;;;;;;;7.55;100.00;102702.78;6120493;28;20231;-72
2023/12/18 06:04:25;;;;;;;13.00;11.77;;;;;;;7.51;100.00;102714.59;6130732;28;20231;-72
2023/12/18 06:07:46;;;;;;;13.83;12.20;;;;;;;7.49;100.00;102712.97;6132069;28;20608;-72
2023/12/18 06:11:07;;;;;;;14.80;13.23;;;;;;;7.55;100.00;102721.56;6138443;28;20238;-73
2023/12/18 06:14:27;;;;;;;16.20;13.93;;;;;;;7.58;100.00;102717.88;6142199;28;20322;-73
2023/12/18 06:17:49;;;;;;;14.70;12.97;;;;;;;7.51;100.00;102717.28;6143164;28;20250;-72
2023/12/18 06:21:11;;;;;;;15.73;14.07;;;;;;;7.55;100.00;102721.56;6137038;28;20558;-73
2023/12/18 06:24:32;;;;;;;18.00;14.57;;;;;;;7.53;100.00;102717.25;6140454;28;20266;-72
2023/12/18 06:27:53;;;;;;;17.27;13.63;;;;;;;7.57;100.00;102719.69;6141786;28;20238;-72
2023/12/18 06:31:13;;;;;;;24.07;17.93;;;;;;;7.52;100.00;102734.28;6132002;28;20235;-73
2023/12/18 06:34:36;;;;;;;18.30;15.20;;;;;;;7.52;100.00;102734.28;6136914;28;20243;-73
2023/12/18 06:37:57;;;;;;;19.57;15.57;;;;;;;7.55;100.00;102736.81;6135295;28;20621;-73
2023/12/18 06:41:18;;;;;;;19.57;17.07;;;;;;;7.69;100.00;102727.19;6131544;28;20263;-74
2023/12/18 06:44:39;;;;;;;23.57;16.50;;;;;;;7.63;100.00;102740.91;6131612;28;20235;-74
2023/12/18 06:48:00;;;;;;;21.10;16.23;;;;;;;7.64;100.00;102734.56;6125096;28;20235;-72
2023/12/18 06:51:22;;;;;;;19.03;14.90;;;;;;;7.67;100.00;102726.38;6126563;28;20243;-72
2023/12/18 06:54:43;;;;;;;21.40;14.53;;;;;;;7.66;100.00;102723.75;6131626;28;20239;-72
2023/12/18 06:58:04;;;;;;;17.30;11.40;;;;;;;7.58;100.00;102736.66;6127619;28;20231;-72
2023/12/18 07:01:26;;;;;;;19.77;16.00;;;;;;;7.57;100.00;102719.69;6128620;28;20234;-73
2023/12/18 07:04:47;;;;;;;23.07;17.27;;;;;;;7.58;100.00;102724.13;6126009;28;20263;-72
2023/12/18 07:08:09;;;;;;;23.57;15.10;;;;;;;7.60;100.00;102734.78;6132952;28;20458;-72
2023/12/18 07:11:30;;;;;;;23.40;15.90;;;;;;;7.60;100.00;102724.03;6134001;28;21179;-72
2023/12/18 07:14:51;;;;;;;28.87;16.30;;;;;;;7.63;100.00;102732.84;6135127;28;20230;-73
2023/12/18 07:18:13;;;;;;;23.03;16.57;;;;;;;7.62;100.00;102747.19;6130167;28;20258;-72
2023/12/18 07:21:34;;;;;;;27.10;18.27;;;;;;;7.59;100.00;102742.00;6129697;28;20251;-72
2023/12/18 07:24:57;;;;;;;20.63;15.37;;;;;;;7.54;100.00;102753.84;6135792;28;20239;-72
2023/12/18 07:28:18;;;;;;;32.77;18.07;;;;;;;7.56;100.00;102760.03;6127093;28;20242;-72
2023/12/18 07:31:39;;;;;;;33.33;18.07;;;;;;;7.56;100.00;102763.59;6132112;28;20290;-73
2023/12/18 07:35:00;;;;;;;18.77;15.30;;;;;;;7.48;100.00;102757.69;6126011;28;20323;-73
2023/12/18 07:38:21;;;;;;;23.73;15.63;;;;;;;7.53;100.00;102752.97;6133397;28;20645;-73
2023/12/18 07:41:43;;;;;;;22.93;18.10;;;;;;;7.53;100.00;102758.34;6133236;28;20967;-73
2023/12/18 07:45:05;;;;;;;26.30;20.10;;;;;;;7.50;100.00;102761.19;6137392;28;20250;-72
2023/12/18 07:48:27;;;;;;;20.10;15.97;;;;;;;7.46;100.00;102762.28;6131099;28;20628;-73
2023/12/18 07:51:48;;;;;;;20.17;17.43;;;;;;;7.54;100.00;102761.91;6112110;28;20644;-73
2023/12/18 07:55:09;;;;;;;28.03;19.93;;;;;;;7.51;100.00;102767.44;6137422;28;20231;-74
2023/12/18 07:58:31;;;;;;;18.27;16.37;;;;;;;7.52;100.00;102764.66;6140051;28;20644;-74
2023/12/18 08:01:52;;;;;;;26.53;19.20;;;;;;;7.55;100.00;102771.72;6126666;28;20243;-74
2023/12/18 08:05:13;;;;;;;27.53;15.37;;;;;;;7.50;100.00;102774.59;6137182;28;20684;-73
2023/12/18 08:08:34;;;;;;;26.73;18.80;;;;;;;7.49;100.00;102753.22;6133118;28;20334;-70
2023/12/18 08:11:55;;;;;;;20.53;16.80;;;;;;;7.45;100.00;102773.94;6125626;28;20791;-71
2023/12/18 08:15:17;;;;;;;25.63;18.03;;;;;;;7.48;100.00;102763.06;6128202;28;20238;-72
2023/12/18 08:18:38;;;;;;;18.93;16.73;;;;;;;7.54;100.00;102757.41;6130632;28;20346;-70
2023/12/18 08:21:59;;;;;;;23.93;17.30;;;;;;;7.54;100.00;102764.59;6123363;28;20235;-70
2023/12/18 08:25:21;;;;;;;25.63;18.47;;;;;;;7.54;100.00;102760.09;6130484;28;20235;-70
2023/12/18 08:28:43;;;;;;;25.57;18.53;;;;;;;7.48;100.00;102754.13;6136968;28;20239;-70
2023/12/18 08:32:05;;;;;;;21.37;18.20;;;;;;;7.58;100.00;102750.09;6140144;28;20236;-70
2023/12/18 08:35:26;;;;;;;23.83;18.70;;;;;;;7.53;100.00;102736.88;6134448;28;20285;-70
2023/12/18 08:38:47;;;;;;;23.93;17.63;;;;;;;7.55;100.00;102732.31;6130170;28;20239;-70
2023/12/18 08:42:08;;;;;;;43.53;20.23;;;;;;;7.51;100.00;102728.03;6135023;28;20630;-69
2023/12/18 08:45:28;;;;;;;24.67;19.37;;;;;;;7.49;100.00;102743.31;6134692;28;20258;-70
2023/12/18 08:48:51;;;;;;;27.53;21.03;;;;;;;7.53;100.00;102719.94;6132399;28;20227;-70
2023/12/18 08:52:12;;;;;;;25.90;19.33;;;;;;;7.58;100.00;102721.44;6131469;28;20243;-70
2023/12/18 08:55:38;;;;;;;26.37;19.23;;;;;;;7.51;100.00;102760.22;6131926;28;20235;-71
2023/12/18 08:58:59;;;;;;;20.60;17.37;;;;;;;7.58;100.00;102740.22;6129786;28;20235;-71
2023/12/18 09:02:20;;;;;;;27.13;19.90;;;;;;;7.56;100.00;102750.16;6131794;28;20610;-69
2023/12/18 09:05:43;;;;;;;25.57;19.67;;;;;;;7.57;100.00;102743.00;6127644;28;20294;-69
2023/12/18 09:09:04;;;;;;;27.60;18.63;;;;;;;7.53;100.00;102771.75;6133393;28;20992;-70
2023/12/18 09:12:25;;;;;;;31.67;19.77;;;;;;;7.55;100.00;102744.88;6133810;28;20250;-70
2023/12/18 09:15:46;;;;;;;31.07;21.80;;;;;;;7.53;100.00;102739.56;6131726;28;20234;-70
2023/12/18 09:19:08;;;;;;;26.50;19.37;;;;;;;7.52;100.00;102740.53;6136975;28;20255;-69
2023/12/18 09:22:30;;;;;;;31.07;21.43;;;;;;;7.62;100.00;102720.34;6138882;28;20821;-69
2023/12/18 09:25:52;;;;;;;22.57;16.90;;;;;;;7.61;100.00;102733.84;6139957;28;20239;-70
2023/12/18 09:29:12;;;;;;;30.37;19.93;;;;;;;7.69;100.00;102737.03;6139566;28;20937;-69
2023/12/18 09:32:33;;;;;;;24.07;18.03;;;;;;;7.73;100.00;102736.84;6135965;28;20243;-69
2023/12/18 09:35:55;;;;;;;27.57;19.27;;;;;;;7.64;100.00;102739.94;6138746;28;20636;-69
2023/12/18 09:39:17;;;;;;;22.63;17.17;;;;;;;7.69;100.00;102731.69;6133775;28;20235;-70
2023/12/18 09:42:39;;;;;;;25.57;18.33;;;;;;;7.74;100.00;102724.28;6131051;28;20619;-70
2023/12/18 09:46:00;;;;;;;26.00;18.33;;;;;;;7.69;100.00;102726.31;6132321;28;20246;-69
2023/12/18 09:49:21;;;;;;;23.73;17.57;;;;;;;7.70;100.00;102728.03;6137097;28;20678;-70
2023/12/18 09:52:46;;;;;;;24.10;17.53;;;;;;;7.74;100.00;102717.09;6137551;28;20338;-69
2023/12/18 09:56:10;;;;;;;24.10;16.40;;;;;;;7.79;100.00;102706.13;6137912;28;20227;-69
2023/12/18 09:59:32;;;;;;;22.20;16.87;;;;;;;7.79;100.00;102709.69;6130616;28;21922;-70
2023/12/18 10:02:55;;;;;;;23.10;18.50;;;;;;;7.87;100.00;102704.81;6129827;28;20238;-69
2023/12/18 10:06:16;;;;;;;24.20;18.97;;;;;;;7.88;100.00;102708.38;6131607;28;20613;-69
2023/12/18 10:09:37;;;;;;;22.60;16.67;;;;;;;7.96;100.00;102690.97;6137737;28;20251;-70
2023/12/18 10:13:03;;;;;;;22.27;16.37;;;;;;;7.90;100.00;102702.00;6135599;28;20230;-69
2023/12/18 10:16:23;;;;;;;23.23;14.47;;;;;;;7.91;100.00;102706.41;6137092;28;20238;-70
2023/12/18 10:19:45;;;;;;;32.23;16.97;;;;;;;7.94;100.00;102692.84;6135114;28;20232;-70
2023/12/18 10:23:07;;;;;;;24.73;18.13;;;;;;;7.90;100.00;102704.69;6135945;28;21059;-70
2023/12/18 10:26:28;;;;;;;20.03;15.97;;;;;;;7.96;100.00;102687.41;6136261;28;20231;-69
2023/12/18 10:29:50;;;;;;;20.90;14.80;;;;;;;7.95;100.00;102689.22;6127307;28;20231;-69
2023/12/18 10:33:12;;;;;;;18.50;16.03;;;;;;;7.94;100.00;102679.44;6142380;28;20504;-68
2023/12/18 10:36:34;;;;;;;20.83;16.10;;;;;;;8.01;100.00;102680.84;6135192;28;20293;-70
2023/12/18 10:40:00;;;;;;;22.57;15.37;;;;;;;7.97;100.00;102660.47;6130742;28;20230;-70
2023/12/18 10:43:23;;;;;;;26.77;17.37;;;;;;;7.96;100.00;102669.47;6135340;28;20235;-70
2023/12/18 10:46:49;;;;;;;27.40;19.07;;;;;;;7.96;100.00;102666.78;6136472;28;20235;-70
2023/12/18 10:50:12;;;;;;;18.23;16.27;;;;;;;7.96;100.00;102657.88;6130714;28;20239;-70
2023/12/18 10:53:36;;;;;;;22.20;16.23;;;;;;;7.94;100.00;102655.25;6131320;28;20613;-70
2023/12/18 10:56:59;;;;;;;17.27;14.33;;;;;;;7.90;100.00;102644.75;6124700;28;20254;-70
2023/12/18 11:00:21;;;;;;;19.13;14.00;;;;;;;7.90;100.00;102652.78;6134758;28;20522;-70
2023/12/18 11:03:43;;;;;;;23.03;18.07;;;;;;;7.94;100.00;102644.53;6131868;28;20231;-70
2023/12/18 11:07:05;;;;;;;21.87;16.00;;;;;;;7.97;100.00;102647.03;6132364;28;20251;-70
2023/12/18 11:10:26;;;;;;;18.47;13.87;;;;;;;7.93;100.00;102640.06;6137682;28;20227;-71
2023/12/18 11:14:00;;;;;;;21.50;15.87;;;;;;;7.83;100.00;102641.47;6127663;28;20231;-70
2023/12/18 11:17:29;;;;;;;20.77;15.33;;;;;;;7.91;100.00;102643.78;6131135;28;20239;-70
2023/12/18 11:20:52;;;;;;;21.00;16.63;;;;;;;7.90;100.00;102642.94;6136980;28;20616;-71
2023/12/18 11:24:14;;;;;;;19.17;15.93;;;;;;;7.86;100.00;102627.88;6137600;28;20234;-70
2023/12/18 11:27:35;;;;;;;26.10;18.10;;;;;;;7.92;100.00;102642.84;6138275;28;20251;-72
2023/12/18 11:31:01;;;;;;;24.73;19.63;;;;;;;7.76;100.00;102629.28;6139391;28;20326;-71
2023/12/18 11:34:22;;;;;;;28.07;18.53;;;;;;;7.84;100.00;102616.34;6140210;28;20235;-70
2023/12/18 11:37:46;;;;;;;22.43;16.43;;;;;;;7.88;100.00;102614.41;6135161;28;20242;-70
2023/12/18 11:41:07;;;;;;;29.20;20.23;;;;;;;7.91;100.00;102616.94;6136147;28;20257;-70
2023/12/18 11:44:28;;;;;;;23.13;16.70;;;;;;;7.94;100.00;102611.41;6136361;28;20648;-70
2023/12/18 11:47:51;;;;;;;23.77;18.30;;;;;;;7.88;100.00;102615.28;6137486;28;20239;-69
2023/12/18 11:51:12;;;;;;;21.60;15.77;;;;;;;7.83;100.00;102601.22;6132967;28;20318;-69
2023/12/18 11:54:34;;;;;;;25.53;15.67;;;;;;;7.88;100.00;102593.81;6137052;28;20235;-69
2023/12/18 11:57:56;;;;;;;21.50;16.30;;;;;;;7.95;100.00;102591.66;6135838;28;20231;-69
2023/12/18 12:01:17;;;;;;;21.97;16.27;;;;;;;7.91;100.00;102580.22;6130734;28;20243;-71
2023/12/18 12:04:38;;;;;;;20.20;17.03;;;;;;;7.94;100.00;102576.50;6133222;28;20231;-73
2023/12/18 12:08:01;;;;;;;22.07;16.17;;;;;;;7.96;100.00;102588.03;6136146;28;20250;-70
2023/12/18 12:11:23;;;;;;;21.27;16.57;;;;;;;7.90;100.00;102596.41;6121794;28;20493;-71
2023/12/18 12:14:44;;;;;;;25.27;16.87;;;;;;;7.83;100.00;102595.84;6129867;28;20234;-69
2023/12/18 12:18:06;;;;;;;26.13;17.50;;;;;;;7.83;100.00;102585.09;6135756;28;20230;-70
2023/12/18 12:21:27;;;;;;;28.03;17.80;;;;;;;7.90;100.00;102577.63;6132161;28;20235;-70
2023/12/18 12:24:48;;;;;;;28.23;17.10;;;;;;;7.93;100.00;102581.00;6132837;28;20231;-70
2023/12/18 12:28:10;;;;;;;20.17;15.60;;;;;;;7.99;100.00;102588.75;6134018;28;20223;-70
2023/12/18 12:31:32;;;;;;;24.67;15.13;;;;;;;7.96;100.00;102583.56;6134373;28;20227;-70
2023/12/18 12:34:53;;;;;;;26.07;18.73;;;;;;;8.01;100.00;102583.28;6123059;28;20231;-70
2023/12/18 12:38:16;;;;;;;20.27;15.77;;;;;;;7.97;100.00;102579.03;6134965;28;20326;-70
2023/12/18 12:41:37;;;;;;;17.73;16.00;;;;;;;8.03;100.00;102576.91;6132358;28;20560;-69
2023/12/18 12:45:00;;;;;;;21.07;16.40;;;;;;;8.08;100.00;102566.81;6127057;28;20235;-70
2023/12/18 12:48:23;;;;;;;17.20;14.33;;;;;;;8.10;100.00;102564.03;6130312;28;20234;-70
2023/12/18 12:51:44;;;;;;;21.37;14.53;;;;;;;8.07;100.00;102581.16;6132646;28;20622;-71
2023/12/18 12:55:06;;;;;;;19.37;17.30;;;;;;;8.03;100.00;102571.53;6128522;28;20255;-69
2023/12/18 12:58:33;;;;;;;27.20;14.50;;;;;;;8.03;100.00;102563.47;6125475;28;21163;-70
2023/12/18 13:01:55;;;;;;;20.90;14.07;;;;;;;8.01;100.00;102577.91;6120357;28;20239;-70
2023/12/18 13:05:16;;;;;;;20.53;15.33;;;;;;;7.97;100.00;102569.16;6130050;28;20231;-68
2023/12/18 13:08:37;;;;;;;18.47;15.00;;;;;;;7.94;100.00;102577.38;6131479;28;20235;-69
2023/12/18 13:11:59;;;;;;;18.80;14.37;;;;;;;7.98;100.00;102576.28;6116938;28;20326;-68
2023/12/18 13:15:20;;;;;;;20.77;15.60;;;;;;;7.95;100.00;102578.22;6130044;28;20231;-69
2023/12/18 13:18:42;;;;;;;20.27;13.83;;;;;;;7.89;100.00;102589.28;6137154;28;20226;-68
2023/12/18 13:22:04;;;;;;;18.10;15.17;;;;;;;7.93;100.00;102574.75;6139854;28;20342;-69
2023/12/18 13:25:24;;;;;;;25.33;15.07;;;;;;;7.82;100.00;102564.56;6135161;28;20235;-69
2023/12/18 13:28:45;;;;;;;23.83;14.53;;;;;;;7.84;100.00;102559.97;6133795;28;20235;-68
2023/12/18 13:32:07;;;;;;;19.43;17.23;;;;;;;7.84;100.00;102557.28;6138005;28;20238;-68
2023/12/18 13:35:29;;;;;;;23.67;14.77;;;;;;;7.76;100.00;102550.59;6136995;28;20261;-68
2023/12/18 13:38:50;;;;;;;21.03;17.03;;;;;;;7.83;100.00;102533.22;6122093;28;20262;-67
2023/12/18 13:42:11;;;;;;;21.73;17.07;;;;;;;7.79;100.00;102531.63;6133188;28;20234;-68
2023/12/18 13:45:32;;;;;;;22.37;18.37;;;;;;;7.82;100.00;102528.81;6132460;28;20231;-69
2023/12/18 13:48:53;;;;;;;28.10;19.70;;;;;;;7.76;100.00;102513.88;6134114;28;20235;-69
2023/12/18 13:52:15;;;;;;;25.53;16.43;;;;;;;7.72;100.00;102498.88;6132082;28;20553;-68
2023/12/18 13:55:36;;;;;;;23.43;15.93;;;;;;;7.72;100.00;102501.56;6130308;28;20234;-71
2023/12/18 13:58:57;;;;;;;32.23;20.77;;;;;;;7.73;100.00;102507.78;6130079;28;20234;-71
2023/12/18 14:02:18;;;;;;;22.87;16.67;;;;;;;7.74;100.00;102510.41;6132826;28;21036;-70
2023/12/18 14:05:39;;;;;;;18.17;13.77;;;;;;;7.74;100.00;102502.34;6131062;28;20238;-71
2023/12/18 14:09:03;;;;;;;19.17;15.07;;;;;;;7.77;100.00;102506.69;6131744;28;20232;-69
2023/12/18 14:12:24;;;;;;;21.13;15.33;;;;;;;7.79;100.00;102512.84;6126422;28;20243;-70
2023/12/18 14:15:45;;;;;;;25.70;15.10;;;;;;;7.82;100.00;102505.50;6141265;28;20228;-70
2023/12/18 14:19:06;;;;;;;20.87;13.70;;;;;;;7.76;100.00;102524.59;6138440;28;20238;-69
2023/12/18 14:22:27;;;;;;;23.57;14.50;;;;;;;7.72;100.00;102501.56;6138015;28;20625;-70
2023/12/18 14:25:49;;;;;;;18.57;13.63;;;;;;;7.71;100.00;102493.59;6131724;28;20227;-71
2023/12/18 14:29:11;;;;;;;15.77;12.37;;;;;;;7.67;100.00;102500.06;6142376;28;20802;-69
2023/12/18 14:32:32;;;;;;;21.23;15.43;;;;;;;7.62;100.00;102480.63;6138035;28;20243;-69
2023/12/18 14:35:53;;;;;;;23.10;17.40;;;;;;;7.68;100.00;102483.00;6137956;28;20230;-70
2023/12/18 14:39:14;;;;;;;22.67;16.43;;;;;;;7.59;100.00;102481.69;6140386;28;20656;-69
2023/12/18 14:42:37;;;;;;;16.03;13.13;;;;;;;7.54;100.00;102497.13;6131668;28;20626;-70
2023/12/18 14:45:58;;;;;;;19.30;15.47;;;;;;;7.62;100.00;102480.63;6136245;28;20794;-70
2023/12/18 14:49:19;;;;;;;18.53;14.30;;;;;;;7.63;100.00;102469.84;6133487;28;20239;-69
2023/12/18 14:52:40;;;;;;;20.87;15.13;;;;;;;7.60;100.00;102478.03;6134121;28;21914;-68
2023/12/18 14:56:01;;;;;;;24.93;15.93;;;;;;;7.61;100.00;102477.09;6134379;28;20322;-70
2023/12/18 14:59:23;;;;;;;25.43;15.00;;;;;;;7.56;100.00;102481.81;6131380;28;20235;-70
2023/12/18 15:02:44;;;;;;;25.77;17.47;;;;;;;7.58;100.00;102466.50;6133476;28;20223;-69
2023/12/18 15:06:06;;;;;;;21.07;14.83;;;;;;;7.60;100.00;102469.09;6136545;28;20235;-69
2023/12/18 15:09:28;;;;;;;21.03;14.87;;;;;;;7.62;100.00;102461.84;6137089;28;20232;-70
2023/12/18 15:12:49;;;;;;;24.20;18.30;;;;;;;7.63;100.00;102463.59;6134690;28;20495;-69
2023/12/18 15:16:12;;;;;;;22.27;15.93;;;;;;;7.62;100.00;102462.72;6141364;28;20231;-69
2023/12/18 15:19:35;;;;;;;18.27;14.83;;;;;;;7.63;100.00;102458.22;6136803;28;20624;-69